VK4VP-5 Buderim QLD AU current weather conditions

sailwx.info

Wind from 015 at 3 knots gusting 7

Air temperature 25.0° C
Dewpoint 21.7° C

Last reported at 2014-Dec-19 09:47 UTC.
Time now 2014-Dec-19 10:09 UTC

Location: S 26°42' E 153°05'.
View on Google Maps.

See reports from other nearby stations

  
Tides and Currents Weather Stations Pressure Air Temp Water Temp Dewpoint Dewpoint Depression Visibility Wind Speed Wind Dir Waves Ship Positions
date/time (UTC)wind fromknots sea level pressurealtimeterstation pressurevisibilityair tempwater tempwave heightnotes
2014-Dec-19 09:47 015 3 gusting 7 25.0
2014-Dec-19 09:37 015 3 gusting 8 25.0
2014-Dec-19 09:27 015 3 gusting 7 25.0
2014-Dec-19 09:17 015 4 gusting 8 25.6
2014-Dec-19 09:07 015 5 gusting 9 25.6
2014-Dec-19 08:57 016 5 gusting 9 25.6
2014-Dec-19 08:47 014 5 gusting 10 25.6
2014-Dec-19 08:37 020 5 gusting 9 25.6
2014-Dec-19 08:27 017 5 gusting 10 25.6
2014-Dec-19 08:17 013 6 gusting 13 26.1
2014-Dec-19 08:07 024 4 gusting 11 26.7
2014-Dec-19 07:57 024 4 gusting 10 26.7
2014-Dec-19 07:47 022 3 gusting 8 26.7
2014-Dec-19 07:37 023 3 gusting 8 27.2
2014-Dec-19 07:27 026 4 gusting 9 27.2
2014-Dec-19 07:17 021 5 gusting 10 27.2
2014-Dec-19 07:07 029 5 gusting 10 27.2
2014-Dec-19 06:57 031 5 gusting 12 27.2
2014-Dec-19 06:47 025 4 gusting 10 27.2
2014-Dec-19 06:37 017 6 gusting 11 27.2
2014-Dec-19 06:27 018 5 gusting 10 27.8
2014-Dec-19 06:17 019 5 gusting 10 27.2
2014-Dec-19 06:07 021 6 gusting 11 27.2
2014-Dec-19 05:57 022 4 gusting 10 27.2
2014-Dec-19 05:47 018 5 gusting 9 27.8
2014-Dec-19 05:37 030 5 gusting 9 27.8
2014-Dec-19 05:27 029 6 gusting 10 27.8
2014-Dec-19 05:17 029 4 gusting 9 27.8
2014-Dec-19 05:07 037 5 gusting 9 27.8
2014-Dec-19 04:57 046 5 gusting 10 27.8
2014-Dec-19 04:47 027 4 gusting 9 28.3
2014-Dec-19 04:37 013 6 gusting 12 28.3
2014-Dec-19 04:36 014 6 gusting 12 28.3
2014-Dec-19 04:27 023 4 gusting 10 28.3
2014-Dec-19 04:17 023 5 gusting 9 28.3
2014-Dec-19 04:07 019 5 gusting 9 28.3
2014-Dec-19 03:57 036 3 gusting 9 28.3
2014-Dec-19 03:47 032 4 gusting 9 27.8
2014-Dec-19 03:37 030 5 gusting 10 28.3
2014-Dec-19 03:27 038 6 gusting 10 28.3
2014-Dec-19 03:17 033 6 gusting 11 28.3
2014-Dec-19 03:07 024 5 gusting 10 28.9
2014-Dec-19 02:57 033 5 gusting 10 28.3
2014-Dec-19 02:47 026 4 gusting 8 28.3
2014-Dec-19 02:45 027 3 gusting 8 28.3
2014-Dec-19 02:38 029 4 gusting 8 27.8
2014-Dec-19 02:28 043 3 gusting 8 27.8
2014-Dec-19 02:18 068 1 gusting 6 27.8
2014-Dec-19 02:08 077 1 gusting 6 27.2
2014-Dec-19 02:06 079 1 gusting 6 27.2
2014-Dec-19 01:58 083 1 gusting 7 26.7
2014-Dec-19 01:48 090 1 gusting 5 26.7
2014-Dec-19 01:38 073 1 gusting 8 26.7
2014-Dec-19 01:28 061 3 gusting 8 26.7
2014-Dec-19 01:18 189 0 gusting 6 27.2
2014-Dec-19 01:08 192 0 gusting 5 26.7
2014-Dec-19 00:58 192 0 gusting 6 26.7
2014-Dec-19 00:48 192 0 gusting 5 25.6
2014-Dec-19 00:38 192 25.6
2014-Dec-19 00:28 192 0 gusting 3 25.0
2014-Dec-19 00:18 192 0 gusting 5 24.4
2014-Dec-19 00:08 192 23.9
2014-Dec-18 23:58 192 23.3
2014-Dec-18 23:48 192 0 gusting 2 23.3
2014-Dec-18 23:38 192 22.8
2014-Dec-18 23:28 192 0 gusting 3 22.2
2014-Dec-18 23:26 192 22.2
2014-Dec-18 23:18 192 0 gusting 3 22.2
2014-Dec-18 23:08 192 0 gusting 3 21.7
2014-Dec-18 22:58 192 21.7
2014-Dec-18 22:48 191 21.1
2014-Dec-18 22:38 192 21.1
2014-Dec-18 22:18 193 20.6
2014-Dec-18 22:08 20.6
2014-Dec-18 22:06 192 20.6
2014-Dec-18 21:58 192 20.6
2014-Dec-18 21:48 192 20.6
2014-Dec-18 21:38 192 20.6
2014-Dec-18 21:36 192 20.6
2014-Dec-18 21:28 193 20.6
2014-Dec-18 21:18 20.0
2014-Dec-18 21:16 20.0
2014-Dec-18 21:08 20.0
2014-Dec-18 20:58 20.0
2014-Dec-18 20:48 20.0
2014-Dec-18 20:38 19.4
2014-Dec-18 20:36 20.0
2014-Dec-18 20:28 19.4
2014-Dec-18 20:18 193 19.4
2014-Dec-18 20:08 19.4
2014-Dec-18 20:06 192 19.4
2014-Dec-18 19:58 188 19.4
2014-Dec-18 19:48 208 20.0
2014-Dec-18 19:38 208 20.0
2014-Dec-18 19:28 243 20.0
2014-Dec-18 19:18 248 20.0
2014-Dec-18 19:16 248 20.0
2014-Dec-18 19:08 20.0
2014-Dec-18 18:58 20.0
2014-Dec-18 18:48 248 20.0
2014-Dec-18 18:38 248 20.0
2014-Dec-18 18:36 248 20.0
2014-Dec-18 18:28 248 20.0
2014-Dec-18 18:26 249 20.0
2014-Dec-18 18:18 249 20.0
2014-Dec-18 18:08 248 20.6
2014-Dec-18 18:06 248 20.6
2014-Dec-18 17:58 248 20.6
2014-Dec-18 17:48 20.6
2014-Dec-18 17:38 20.6
2014-Dec-18 17:28 20.6
2014-Dec-18 17:26 20.6
2014-Dec-18 17:18 249 20.6
2014-Dec-18 17:08 248 20.0
2014-Dec-18 16:58 248 20.0
2014-Dec-18 16:56 248 20.0
2014-Dec-18 16:48 249 20.0
2014-Dec-18 16:38 248 20.0
2014-Dec-18 16:36 248 20.0
2014-Dec-18 16:28 248 20.0
2014-Dec-18 16:26 248 20.0
2014-Dec-18 16:18 248 20.0
2014-Dec-18 16:16 248 20.0
2014-Dec-18 16:08 248 20.0
2014-Dec-18 15:58 248 20.0
2014-Dec-18 15:48 248 0 gusting 3 20.6
2014-Dec-18 15:38 249 0 gusting 5 20.6
2014-Dec-18 15:28 249 2 gusting 6 20.6
2014-Dec-18 15:18 257 2 gusting 8 21.1
2014-Dec-18 15:08 261 2 gusting 6 21.1
2014-Dec-18 15:06 263 2 gusting 8 21.1
2014-Dec-18 14:57 286 3 gusting 8 21.7
2014-Dec-18 14:56 292 2 gusting 8 21.7
2014-Dec-18 14:47 317 2 gusting 8 22.2
2014-Dec-18 14:46 318 2 gusting 8 22.2
2014-Dec-18 14:37 323 2 gusting 8 22.2
2014-Dec-18 14:36 323 2 gusting 8 22.2
2014-Dec-18 14:27 324 4 gusting 9 22.8
2014-Dec-18 14:17 324 5 gusting 9 22.8
2014-Dec-18 14:07 301 2 gusting 8 22.2
2014-Dec-18 14:06 299 1 gusting 8 22.2
2014-Dec-18 13:57 278 22.8
2014-Dec-18 13:56 278 22.8
2014-Dec-18 13:47 278 0 gusting 5 22.2
2014-Dec-18 13:37 277 22.8
2014-Dec-18 13:27 278 22.8
2014-Dec-18 13:26 278 22.8
2014-Dec-18 13:17 277 22.8
2014-Dec-18 13:16 277 22.8
2014-Dec-18 13:07 277 0 gusting 5 22.8
2014-Dec-18 12:57 277 22.8
2014-Dec-18 12:47 277 22.8
2014-Dec-18 12:46 277 22.8
2014-Dec-18 12:37 277 0 gusting 6 22.8
2014-Dec-18 12:27 273 1 gusting 5 22.8
2014-Dec-18 12:17 215 1 gusting 6 22.8
2014-Dec-18 12:07 199 0 gusting 3 22.8
2014-Dec-18 11:57 199 22.8
2014-Dec-18 11:56 200 22.8
2014-Dec-18 11:47 200 22.8
2014-Dec-18 11:37 22.8
2014-Dec-18 11:36 22.8
2014-Dec-18 11:27 199 22.8
2014-Dec-18 11:17 199 22.8
2014-Dec-18 11:16 199 22.8
2014-Dec-18 11:07 200 22.8
2014-Dec-18 10:57 199 22.8
2014-Dec-18 10:47 200 23.3
2014-Dec-18 10:37 200 23.3
2014-Dec-18 10:27 200 23.3
2014-Dec-18 10:26 23.3
2014-Dec-18 10:17 200 23.3
2014-Dec-18 10:07 199 23.3
2014-Dec-18 10:06 199 0 gusting 2 23.3
2014-Dec-18 09:57 199 0 gusting 3 23.3
2014-Dec-18 09:56 199 0 gusting 3 23.3
2014-Dec-18 09:47 199 23.3
2014-Dec-18 09:37 199 23.3
2014-Dec-18 09:27 199 0 gusting 3 23.3
2014-Dec-18 09:17 199 1 gusting 7 23.3
2014-Dec-18 09:16 198 1 gusting 8 23.9
2014-Dec-18 09:07 197 6 gusting 12 25.0
2014-Dec-18 08:57 205 10 gusting 20 27.2
2014-Dec-18 08:56 205 11 gusting 25 27.2
2014-Dec-18 08:47 208 7 gusting 25 28.3
2014-Dec-18 08:37 299 2 gusting 9 28.9
2014-Dec-18 08:27 007 5 gusting 9 28.9
2014-Dec-18 08:17 006 5 gusting 11 28.9
2014-Dec-18 08:07 008 3 gusting 8 28.9
2014-Dec-18 07:57 014 3 gusting 8 28.9
2014-Dec-18 07:47 017 5 gusting 12 28.3
2014-Dec-18 07:37 020 3 gusting 8 28.3
2014-Dec-18 07:27 029 3 gusting 8 28.3
2014-Dec-18 07:17 019 4 gusting 9 28.3
2014-Dec-18 07:07 017 5 gusting 11 28.3
2014-Dec-18 06:57 018 7 gusting 13 28.3
2014-Dec-18 06:47 015 6 gusting 12 28.3
2014-Dec-18 05:47 021 8 gusting 16 28.9
2014-Dec-18 05:37 020 8 gusting 18 28.9
2014-Dec-18 05:27 028 8 gusting 17 28.9
2014-Dec-18 05:17 021 6 gusting 14 28.9
2014-Dec-18 05:16 022 6 gusting 14 28.9
2014-Dec-18 05:07 024 7 gusting 17 28.9
2014-Dec-18 05:06 025 7 gusting 17 28.9
2014-Dec-18 04:57 016 9 gusting 17 29.4
2014-Dec-18 04:56 017 9 gusting 17 29.4
2014-Dec-18 04:47 024 9 gusting 18 29.4
2014-Dec-18 04:37 022 9 gusting 20 30.6
2014-Dec-18 04:27 022 7 gusting 15 30.6
2014-Dec-18 04:26 024 8 gusting 15 30.6
2014-Dec-18 04:17 025 7 gusting 16 30.6
2014-Dec-18 04:07 017 7 gusting 14 30.0
2014-Dec-18 03:57 022 7 gusting 15 29.4
2014-Dec-18 03:56 022 7 gusting 15 29.4
2014-Dec-18 03:47 029 8 gusting 17 29.4
2014-Dec-18 03:46 028 8 gusting 17 29.4
2014-Dec-18 03:37 026 6 gusting 14 30.0
2014-Dec-18 03:27 012 6 gusting 13 30.0
2014-Dec-18 03:17 016 8 gusting 15 29.4
2014-Dec-18 03:07 012 8 gusting 15 29.4
2014-Dec-18 02:57 026 6 gusting 13 30.0
2014-Dec-18 02:47 005 7 gusting 12 29.4
2014-Dec-18 02:37 007 6 gusting 10 30.0
2014-Dec-18 02:27 038 6 gusting 13 29.4
2014-Dec-18 02:17 035 6 gusting 14 28.9
2014-Dec-18 02:07 025 6 gusting 13 28.9
2014-Dec-18 01:57 026 9 gusting 14 28.3
2014-Dec-18 01:56 027 9 gusting 18 28.3
2014-Dec-18 01:47 031 6 gusting 18 28.9
2014-Dec-18 01:46 030 6 gusting 14 29.4
2014-Dec-18 01:37 014 5 gusting 10 30.0
2014-Dec-18 01:27 015 6 gusting 11 30.0
2014-Dec-18 01:17 028 6 gusting 12 29.4
2014-Dec-18 01:07 013 7 gusting 14 28.9
2014-Dec-18 00:57 009 5 gusting 12 29.4
2014-Dec-18 00:47 035 6 gusting 12 28.9
2014-Dec-18 00:37 037 6 gusting 16 28.9
2014-Dec-18 00:36 037 5 gusting 14 28.9
2014-Dec-18 00:27 043 5 gusting 12 29.4
2014-Dec-18 00:17 051 5 gusting 10 29.4
2014-Dec-18 00:07 038 4 gusting 9 29.4
2014-Dec-17 23:57 035 2 gusting 8 30.0
2014-Dec-17 23:47 355 3 gusting 8 30.0
2014-Dec-17 23:37 322 2 gusting 8 29.4
2014-Dec-17 23:27 319 3 gusting 9 29.4
2014-Dec-17 23:17 359 1 gusting 8 29.4
2014-Dec-17 23:07 009 4 gusting 11 28.9
2014-Dec-17 23:06 013 5 gusting 11 28.9
2014-Dec-17 22:57 051 2 gusting 8 28.9
2014-Dec-17 22:47 033 2 gusting 8 28.9
2014-Dec-17 22:46 029 2 gusting 8 28.9
2014-Dec-17 22:37 030 1 gusting 7 28.9
2014-Dec-17 22:36 031 0 gusting 7 28.9
2014-Dec-17 22:27 040 1 gusting 8 28.9
2014-Dec-17 22:26 042 1 gusting 8 28.9
2014-Dec-17 22:17 075 2 gusting 7 28.3
2014-Dec-17 22:07 134 28.3
2014-Dec-17 21:57 144 0 gusting 5 27.8
2014-Dec-17 21:47 141 1 gusting 6 27.8
2014-Dec-17 21:46 141 1 gusting 6 27.8
2014-Dec-17 21:37 148 27.2
2014-Dec-17 21:36 149 27.2
2014-Dec-17 21:27 149 0 gusting 5 26.7
2014-Dec-17 21:17 148 0 gusting 3 26.7
2014-Dec-17 21:16 148 0 gusting 3 26.7
2014-Dec-17 21:07 245 1 gusting 6 26.1
2014-Dec-17 20:57 277 26.1
2014-Dec-17 20:47 276 26.1
2014-Dec-17 20:37 276 26.1
2014-Dec-17 20:36 276 26.1
2014-Dec-17 20:27 275 25.6
2014-Dec-17 20:26 275 25.6
2014-Dec-17 20:17 25.0
2014-Dec-17 20:16 267 25.0
2014-Dec-17 20:07 267 25.0
2014-Dec-17 19:57 267 24.4
2014-Dec-17 19:47 264 23.9
2014-Dec-17 19:37 264 23.3
2014-Dec-17 19:27 22.8
2014-Dec-17 19:26 22.8
2014-Dec-17 19:17 264 22.8
2014-Dec-17 19:07 22.8
2014-Dec-17 18:57 264 22.8
2014-Dec-17 18:47 264 22.8
2014-Dec-17 18:46 264 22.8
2014-Dec-17 18:37 22.8
2014-Dec-17 18:27 264 22.8
2014-Dec-17 18:26 264 22.8
2014-Dec-17 18:17 264 22.8
2014-Dec-17 18:07 264 0 gusting 3 22.2
2014-Dec-17 18:06 264 22.2
2014-Dec-17 17:57 264 22.8
2014-Dec-17 17:47 264 23.3
2014-Dec-17 17:46 264 23.3
2014-Dec-17 17:37 23.3
2014-Dec-17 17:36 264 23.3
2014-Dec-17 17:27 264 23.3
2014-Dec-17 17:17 264 23.9
2014-Dec-17 17:07 264 24.4
2014-Dec-17 16:57 264 25.0
2014-Dec-17 16:56 264 25.0
2014-Dec-17 16:47 264 24.4
2014-Dec-17 16:46 264 25.0
2014-Dec-17 16:37 25.0
2014-Dec-17 16:27 264 25.0
2014-Dec-17 16:17 264 25.6
2014-Dec-17 16:16 264 25.6
2014-Dec-17 16:07 264 26.1
2014-Dec-17 15:57 264 26.1
2014-Dec-17 15:47 268 1 gusting 6 26.1
2014-Dec-17 15:37 265 0 gusting 8 26.1
2014-Dec-17 15:36 240 0 gusting 8 26.1
2014-Dec-17 15:27 195 5 gusting 10 26.1
2014-Dec-17 15:17 263 1 gusting 8 26.7
2014-Dec-17 15:07 306 26.7
2014-Dec-17 14:57 326 1 gusting 6 26.7
2014-Dec-17 14:56 326 1 gusting 6 26.7
2014-Dec-17 14:47 332 5 gusting 12 26.7
2014-Dec-17 14:46 332 6 gusting 12 26.7
2014-Dec-17 14:37 326 6 gusting 12 26.7
2014-Dec-17 14:36 326 6 gusting 14 26.7
2014-Dec-17 14:27 313 7 gusting 14 26.7
2014-Dec-17 14:17 314 7 gusting 14 26.7
2014-Dec-17 14:07 322 8 gusting 17 26.7
2014-Dec-17 13:57 317 8 gusting 17 26.7
2014-Dec-17 13:47 315 6 gusting 15 26.1
2014-Dec-17 13:37 305 6 gusting 15 26.1
2014-Dec-17 13:27 307 4 gusting 8 26.1
2014-Dec-17 13:17 309 3 gusting 10 26.1
2014-Dec-17 13:16 307 3 gusting 10 26.1
2014-Dec-17 13:07 311 4 gusting 9 26.1
2014-Dec-17 12:57 304 5 gusting 9 26.1
2014-Dec-17 12:47 306 3 gusting 8 25.6
2014-Dec-17 12:46 307 3 gusting 10 25.6
2014-Dec-17 12:37 309 6 gusting 11 25.6
2014-Dec-17 12:36 309 6 gusting 11 25.6
2014-Dec-17 12:27 324 6 gusting 15 25.6
2014-Dec-17 12:26 324 6 gusting 15 25.6
2014-Dec-17 12:17 303 5 gusting 14 25.6
2014-Dec-17 12:07 315 5 gusting 11 25.6
2014-Dec-17 12:06 315 6 gusting 11 25.6
2014-Dec-17 11:57 310 7 gusting 14 25.6
2014-Dec-17 11:47 314 7 gusting 17 25.6
2014-Dec-17 11:37 329 8 gusting 13 25.6
2014-Dec-17 11:27 329 8 gusting 18 26.1
2014-Dec-17 11:26 329 8 gusting 18 26.1
2014-Dec-17 11:17 327 9 gusting 18 25.6
2014-Dec-17 11:07 322 9 gusting 17 25.6
2014-Dec-17 11:06 321 9 gusting 17 25.6
2014-Dec-17 10:57 313 8 gusting 19 25.6
2014-Dec-17 10:47 321 5 gusting 13 25.6
2014-Dec-17 10:37 320 7 gusting 16 26.1
2014-Dec-17 10:27 319 8 gusting 14 26.7
2014-Dec-17 10:17 316 8 gusting 15 26.7
2014-Dec-17 10:16 315 8 gusting 15 26.7
2014-Dec-17 10:07 320 7 gusting 14 27.2
2014-Dec-17 10:06 322 7 gusting 13 27.2